Time;durP1;ratioP1;P1;durP2;ratioP2;P2;SDS_P1;SDS_P2;PMS_P1;PMS_P2;Temp;Humidity;BMP_temperature;BMP_pressure;BME280_temperature;BME280_humidity;BME280_pressure;Samples;Min_cycle;Max_cycle;Signal;HPM_P1;HPM_P2
2022/11/10 00:01:36;;;;;;;1999.90;999.90;;;9.50;99.90;;;;;;5048215;28;20038;-81
2022/11/10 00:04:02;;;;;;;1999.90;999.90;;;9.60;99.90;;;;;;5049577;28;20044;-81
2022/11/10 00:06:27;;;;;;;1999.90;999.90;;;9.60;99.90;;;;;;5063574;28;20568;-80
2022/11/10 00:08:53;;;;;;;1999.90;999.90;;;9.60;99.90;;;;;;5049441;28;20146;-79
2022/11/10 00:11:19;;;;;;;1999.90;999.90;;;9.50;99.90;;;;;;5067230;28;20032;-79
2022/11/10 00:19:15;;;;;;;1999.90;999.90;;;9.50;99.90;;;;;;5067675;28;20044;-80
2022/11/10 00:21:42;;;;;;;1999.90;999.90;;;9.50;99.90;;;;;;5048028;28;20036;-79
2022/11/10 00:24:08;;;;;;;1999.90;999.90;;;9.60;99.90;;;;;;5048419;28;20040;-79
2022/11/10 00:26:33;;;;;;;681.30;625.28;;;9.50;99.90;;;;;;5046421;28;20040;-79
2022/11/10 00:28:59;;;;;;;1999.90;999.90;;;9.30;99.90;;;;;;5049177;28;20657;-80
2022/11/10 00:31:27;;;;;;;1139.82;626.72;;;9.20;99.90;;;;;;5065134;28;20024;-79
2022/11/10 00:33:53;;;;;;;1999.90;999.90;;;9.00;99.90;;;;;;5066635;28;20226;-78
2022/11/10 00:36:18;;;;;;;1533.90;781.10;;;9.00;99.90;;;;;;5032308;28;20752;-78
2022/11/10 00:38:44;;;;;;;1999.90;999.90;;;8.90;99.90;;;;;;5049131;28;20036;-78
2022/11/10 00:41:09;;;;;;;1999.90;999.90;;;8.80;99.90;;;;;;5047041;28;20425;-79
2022/11/10 00:43:35;;;;;;;909.38;625.58;;;8.80;99.90;;;;;;5048920;28;20077;-79
2022/11/10 00:46:01;;;;;;;1999.90;999.90;;;8.80;99.90;;;;;;5065094;28;20669;-79
2022/11/10 00:48:26;;;;;;;1999.90;999.90;;;8.80;99.90;;;;;;5058688;28;20127;-79
2022/11/10 00:50:52;;;;;;;1999.90;999.90;;;8.70;99.90;;;;;;5032547;28;20032;-78
2022/11/10 00:53:17;;;;;;;1999.90;999.90;;;8.70;99.90;;;;;;5025347;28;20434;-79
2022/11/10 00:55:43;;;;;;;1999.90;999.90;;;8.70;99.90;;;;;;5018426;28;20040;-79
2022/11/10 00:58:09;;;;;;;1999.90;999.90;;;8.70;99.90;;;;;;5026663;28;20067;-79
2022/11/10 01:00:36;;;;;;;1999.90;999.90;;;8.70;99.90;;;;;;5053712;28;20044;-79
2022/11/10 01:03:01;;;;;;;1999.90;999.90;;;8.70;99.90;;;;;;5053174;28;20067;-80
2022/11/10 01:05:28;;;;;;;1999.90;999.90;;;8.70;99.90;;;;;;5030822;28;20036;-78
2022/11/10 01:07:55;;;;;;;1999.90;999.90;;;8.70;99.90;;;;;;5042558;28;20040;-79
2022/11/10 01:10:21;;;;;;;1999.90;999.90;;;8.70;99.90;;;;;;5037965;28;20037;-80
2022/11/10 01:12:46;;;;;;;1999.90;999.90;;;8.70;99.90;;;;;;5033843;28;20040;-78
2022/11/10 01:15:12;;;;;;;1999.90;999.90;;;8.70;99.90;;;;;;5054223;28;20041;-79
2022/11/10 01:17:38;;;;;;;1999.90;999.90;;;8.70;99.90;;;;;;5051336;28;20088;-78
2022/11/10 01:20:07;;;;;;;1999.90;999.90;;;8.70;99.90;;;;;;5051043;28;20135;-81
2022/11/10 01:22:33;;;;;;;1999.90;999.90;;;8.60;99.90;;;;;;5040686;28;20059;-79
2022/11/10 01:24:59;;;;;;;1999.90;999.90;;;8.60;99.90;;;;;;5053968;28;20036;-79
2022/11/10 01:27:25;;;;;;;1999.90;999.90;;;8.60;99.90;;;;;;5053586;28;20056;-79
2022/11/10 01:29:50;;;;;;;1999.90;999.90;;;8.60;99.90;;;;;;5059524;28;20522;-80
2022/11/10 01:32:16;;;;;;;1999.90;999.90;;;8.60;99.90;;;;;;5052378;28;20554;-80
2022/11/10 01:34:41;;;;;;;1999.90;999.90;;;8.60;99.90;;;;;;5034913;28;20036;-80
2022/11/10 01:37:07;;;;;;;1999.90;999.90;;;8.60;99.90;;;;;;5061147;28;20032;-78
2022/11/10 01:39:34;;;;;;;1999.90;999.90;;;8.50;99.90;;;;;;5038383;28;20067;-79
2022/11/10 01:42:01;;;;;;;1999.90;999.90;;;8.50;99.90;;;;;;5035658;28;20067;-81
2022/11/10 01:44:26;;;;;;;1999.90;999.90;;;8.50;99.90;;;;;;5059924;28;20058;-79
2022/11/10 01:46:52;;;;;;;1999.90;999.90;;;8.50;99.90;;;;;;5040761;28;20041;-81
2022/11/10 01:49:22;;;;;;;1999.90;999.90;;;8.50;99.90;;;;;;5048547;28;20524;-79
2022/11/10 01:51:56;;;;;;;1999.90;999.90;;;8.50;99.90;;;;;;5067586;28;20052;-81
2022/11/10 01:54:28;;;;;;;1999.90;999.90;;;8.50;99.90;;;;;;5048187;28;20448;-81
2022/11/10 01:56:59;;;;;;;1999.90;999.90;;;8.50;99.90;;;;;;5066631;28;20031;-82
2022/11/10 01:59:28;;;;;;;1999.90;999.90;;;8.60;99.90;;;;;;5048241;28;20123;-82
2022/11/10 02:02:00;;;;;;;1999.90;999.90;;;8.60;99.90;;;;;;5068544;28;20024;-78
2022/11/10 02:04:26;;;;;;;1999.90;999.90;;;8.70;99.90;;;;;;5062838;28;20074;-79
2022/11/10 02:06:53;;;;;;;1999.90;999.90;;;8.60;99.90;;;;;;5044646;28;20031;-80
2022/11/10 02:09:19;;;;;;;1999.90;999.90;;;8.50;99.90;;;;;;5064780;28;20116;-79
2022/11/10 02:11:46;;;;;;;1999.90;999.90;;;8.50;99.90;;;;;;5047769;28;20600;-79
2022/11/10 02:14:14;;;;;;;1999.90;999.90;;;8.60;99.90;;;;;;5062250;28;20025;-79
2022/11/10 02:16:41;;;;;;;1999.90;999.90;;;8.60;99.90;;;;;;5064189;28;20074;-79
2022/11/10 02:19:22;;;;;;;1999.90;999.90;;;8.60;99.90;;;;;;5066753;28;20044;-79
2022/11/10 02:21:47;;;;;;;1999.90;999.90;;;8.50;99.90;;;;;;5066396;28;20029;-80
2022/11/10 02:24:14;;;;;;;1999.90;999.90;;;8.50;99.90;;;;;;5066537;28;20039;-81
2022/11/10 02:26:51;;;;;;;1999.90;999.90;;;8.50;99.90;;;;;;5045786;28;20514;-79
2022/11/10 02:29:17;;;;;;;1999.90;999.90;;;8.50;99.90;;;;;;5049478;28;20398;-77
2022/11/10 02:31:43;;;;;;;1999.90;999.90;;;8.50;99.90;;;;;;5048771;28;20036;-81
2022/11/10 02:34:09;;;;;;;1999.90;999.90;;;8.50;99.90;;;;;;5067031;28;20040;-80
2022/11/10 02:36:35;;;;;;;1999.90;999.90;;;8.40;99.90;;;;;;5060687;28;20063;-79
2022/11/10 02:39:01;;;;;;;1999.90;999.90;;;8.40;99.90;;;;;;5065415;28;20522;-80
2022/11/10 02:41:27;;;;;;;1999.90;999.90;;;8.30;99.90;;;;;;5062291;28;20682;-80
2022/11/10 02:43:55;;;;;;;1999.90;999.90;;;8.30;99.90;;;;;;5064506;28;20032;-82
2022/11/10 02:46:20;;;;;;;1999.90;999.90;;;8.20;99.90;;;;;;5064594;28;20105;-79
2022/11/10 02:48:46;;;;;;;1999.90;999.90;;;8.10;99.90;;;;;;5047045;28;20056;-79
2022/11/10 02:51:12;;;;;;;1999.90;999.90;;;8.00;99.90;;;;;;5065114;28;20482;-80
2022/11/10 02:53:38;;;;;;;1999.90;999.90;;;7.90;99.90;;;;;;5048083;28;20045;-78
2022/11/10 02:56:04;;;;;;;1999.90;999.90;;;7.80;99.90;;;;;;5049585;28;20043;-79
2022/11/10 02:58:30;;;;;;;1999.90;999.90;;;7.80;99.90;;;;;;5065515;28;20038;-79
2022/11/10 03:00:57;;;;;;;1999.90;999.90;;;7.80;99.90;;;;;;5051826;28;20639;-79
2022/11/10 03:03:22;;;;;;;1999.90;999.90;;;7.70;99.90;;;;;;5031935;28;20032;-79
2022/11/10 03:05:48;;;;;;;1999.90;999.90;;;7.60;99.90;;;;;;5030644;28;20131;-79
2022/11/10 03:08:14;;;;;;;1999.90;999.90;;;7.60;99.90;;;;;;5068658;28;20040;-79
2022/11/10 03:10:39;;;;;;;1999.90;999.90;;;7.50;99.90;;;;;;5055322;28;20518;-80
2022/11/10 03:13:05;;;;;;;1999.90;999.90;;;7.40;99.90;;;;;;5068442;28;20033;-79
2022/11/10 03:15:30;;;;;;;1999.90;999.90;;;7.40;99.90;;;;;;5050706;28;20028;-79
2022/11/10 03:18:01;;;;;;;1999.90;999.90;;;7.30;99.90;;;;;;5046191;28;20158;-81
2022/11/10 03:20:27;;;;;;;1999.90;999.90;;;7.30;99.90;;;;;;5049052;28;20035;-80
2022/11/10 03:22:52;;;;;;;1999.90;999.90;;;7.20;99.90;;;;;;5049583;28;20127;-79
2022/11/10 03:25:18;;;;;;;1999.90;999.90;;;7.20;99.90;;;;;;5050683;28;20029;-79
2022/11/10 03:27:44;;;;;;;1999.90;999.90;;;7.20;99.90;;;;;;5068139;28;20037;-79
2022/11/10 03:30:10;;;;;;;1999.90;999.90;;;7.40;99.90;;;;;;5048407;28;20494;-79
2022/11/10 03:32:35;;;;;;;1999.90;999.90;;;7.30;99.90;;;;;;5051479;28;20035;-78
2022/11/10 03:35:01;;;;;;;1999.90;999.90;;;7.40;99.90;;;;;;5033511;28;20032;-80
2022/11/10 03:37:27;;;;;;;1999.90;999.90;;;7.40;99.90;;;;;;5047752;28;20555;-81
2022/11/10 03:39:52;;;;;;;1999.90;999.90;;;7.30;99.90;;;;;;5032522;28;21405;-80
2022/11/10 03:42:18;;;;;;;1999.90;999.90;;;7.30;99.90;;;;;;5050361;28;20077;-80
2022/11/10 03:44:44;;;;;;;1999.90;999.90;;;7.30;99.90;;;;;;5047361;28;20088;-81
2022/11/10 03:47:11;;;;;;;1999.90;999.90;;;7.10;99.90;;;;;;5044712;28;20068;-78
2022/11/10 03:49:36;;;;;;;1999.90;999.90;;;6.90;99.90;;;;;;5050275;28;20028;-79
2022/11/10 03:52:02;;;;;;;1999.90;999.90;;;6.90;99.90;;;;;;5065073;28;20028;-79
2022/11/10 03:54:28;;;;;;;1999.90;999.90;;;6.80;99.90;;;;;;5049978;28;20060;-80
2022/11/10 03:56:53;;;;;;;1999.90;999.90;;;6.80;99.90;;;;;;5064169;28;20032;-79
2022/11/10 03:59:19;;;;;;;1999.90;999.90;;;6.70;99.90;;;;;;5050734;28;20032;-81
2022/11/10 04:01:44;;;;;;;1999.90;999.90;;;6.70;99.90;;;;;;5019428;28;20077;-79
2022/11/10 04:09:40;;;;;;;1999.90;999.90;;;6.90;99.90;;;;;;5051334;28;20067;-78
2022/11/10 04:17:34;;;;;;;1999.90;999.90;;;6.80;99.90;;;;;;5052455;28;20039;-79
2022/11/10 04:20:01;;;;;;;1999.90;999.90;;;6.80;99.90;;;;;;5047107;28;20029;-80
2022/11/10 04:25:11;;;;;;;1999.90;999.90;;;6.50;99.90;;;;;;5064961;28;20039;-79
2022/11/10 04:27:37;;;;;;;1999.90;999.90;;;6.40;99.90;;;;;;5032571;28;20028;-80
2022/11/10 04:30:04;;;;;;;1999.90;999.90;;;6.30;99.90;;;;;;5050336;28;20029;-79
2022/11/10 04:32:30;;;;;;;1999.90;999.90;;;6.20;99.90;;;;;;5046273;28;20037;-78
2022/11/10 04:34:56;;;;;;;1999.90;999.90;;;6.10;99.90;;;;;;5048655;28;20056;-78
2022/11/10 04:37:22;;;;;;;1999.90;999.90;;;6.00;99.90;;;;;;5032297;28;20117;-78
2022/11/10 04:39:47;;;;;;;1999.90;999.90;;;6.00;99.90;;;;;;5066636;28;20029;-78
2022/11/10 04:42:13;;;;;;;1999.90;999.90;;;6.00;99.90;;;;;;5064775;28;20047;-79
2022/11/10 04:44:38;;;;;;;1999.90;999.90;;;6.10;99.90;;;;;;5048854;28;20025;-79
2022/11/10 04:47:04;;;;;;;1999.90;999.90;;;6.20;99.90;;;;;;5046003;28;21013;-78
2022/11/10 04:49:35;;;;;;;1999.90;999.90;;;6.30;99.90;;;;;;5050102;28;20029;-79
2022/11/10 04:52:00;;;;;;;;;;;6.30;99.90;;;;;;5000067;28;20044;-78
2022/11/10 04:54:26;;;;;;;1999.90;999.90;;;6.40;99.90;;;;;;5038231;28;20503;-78
2022/11/10 04:56:51;;;;;;;1999.90;999.90;;;6.30;99.90;;;;;;5047124;28;20025;-78
2022/11/10 04:59:17;;;;;;;1999.90;999.90;;;6.20;99.90;;;;;;5038406;28;20041;-78
2022/11/10 05:01:44;;;;;;;1999.90;999.90;;;6.20;99.90;;;;;;5054355;28;20478;-80
2022/11/10 05:04:10;;;;;;;1999.90;999.90;;;6.10;99.90;;;;;;5050677;28;20037;-79
2022/11/10 05:06:35;;;;;;;1999.90;999.90;;;6.00;99.90;;;;;;5031164;28;20158;-78
2022/11/10 05:09:01;;;;;;;1999.90;999.90;;;5.90;99.90;;;;;;5040508;28;20079;-78
2022/11/10 05:11:26;;;;;;;1999.90;999.90;;;5.80;99.90;;;;;;5029966;28;20056;-81
2022/11/10 05:13:53;;;;;;;1999.90;999.90;;;5.70;99.90;;;;;;5045183;28;20029;-78
2022/11/10 05:16:19;;;;;;;1999.90;999.90;;;5.70;99.90;;;;;;5056376;28;20086;-79
2022/11/10 05:18:44;;;;;;;1999.90;999.90;;;5.70;99.90;;;;;;5034635;28;20036;-78
2022/11/10 05:21:11;;;;;;;1999.90;999.90;;;5.60;99.90;;;;;;5054825;28;20111;-78
2022/11/10 05:23:37;;;;;;;1999.90;999.90;;;5.60;99.90;;;;;;5024784;28;20059;-79
2022/11/10 05:26:13;;;;;;;1999.90;999.90;;;5.50;99.90;;;;;;5054560;28;20072;-79
2022/11/10 05:28:40;;;;;;;1999.90;999.90;;;5.50;99.90;;;;;;5054300;28;20108;-80
2022/11/10 05:31:06;;;;;;;1999.90;999.90;;;5.40;99.90;;;;;;5055412;28;20037;-79
2022/11/10 05:33:33;;;;;;;1999.90;999.90;;;5.40;99.90;;;;;;5033222;28;20112;-81
2022/11/10 05:35:59;;;;;;;1999.90;999.90;;;5.40;99.90;;;;;;5049373;28;20012;-78
2022/11/10 05:38:24;;;;;;;1999.90;999.90;;;5.50;99.90;;;;;;5021925;28;20056;-78
2022/11/10 05:40:50;;;;;;;1999.90;999.90;;;5.60;99.90;;;;;;5050379;28;20021;-78
2022/11/10 05:43:16;;;;;;;1999.90;999.90;;;5.90;99.90;;;;;;5050972;28;20076;-80
2022/11/10 05:45:42;;;;;;;1999.90;999.90;;;6.10;99.90;;;;;;5058781;28;20487;-78
2022/11/10 05:48:08;;;;;;;1999.90;999.90;;;6.00;99.90;;;;;;5052843;28;20048;-78
2022/11/10 05:50:34;;;;;;;1999.90;999.90;;;5.90;99.90;;;;;;5036528;28;20124;-80
2022/11/10 05:53:00;;;;;;;1999.90;999.90;;;5.90;99.90;;;;;;5039604;28;20793;-80
2022/11/10 05:55:27;;;;;;;1999.90;999.90;;;5.80;99.90;;;;;;5035033;28;20540;-78
2022/11/10 05:57:54;;;;;;;1999.90;999.90;;;5.80;99.90;;;;;;5041492;28;20064;-81
2022/11/10 06:00:23;;;;;;;1999.90;999.90;;;5.80;99.90;;;;;;5050156;28;20689;-80
2022/11/10 06:03:06;;;;;;;1999.90;999.90;;;5.80;99.90;;;;;;5043359;28;20033;-82
2022/11/10 06:05:34;;;;;;;1999.90;999.90;;;5.70;99.90;;;;;;5003956;28;20081;-86
2022/11/10 06:08:02;;;;;;;1999.90;999.90;;;5.60;99.90;;;;;;5012615;28;20044;-80
2022/11/10 06:10:29;;;;;;;1999.90;999.90;;;5.50;99.90;;;;;;5038494;28;20033;-79
2022/11/10 06:12:55;;;;;;;1999.90;999.90;;;5.40;99.90;;;;;;5048267;28;20056;-78
2022/11/10 06:15:23;;;;;;;1999.90;999.90;;;5.40;99.90;;;;;;5051466;28;20052;-82
2022/11/10 06:17:49;;;;;;;1503.07;752.83;;;5.50;99.90;;;;;;5029100;28;20040;-80
2022/11/10 06:20:16;;;;;;;1999.90;999.90;;;5.50;99.90;;;;;;5036426;28;20028;-83
2022/11/10 06:22:43;;;;;;;1999.90;999.90;;;5.50;99.90;;;;;;5039578;28;20181;-81
2022/11/10 06:25:09;;;;;;;1999.90;999.90;;;5.40;99.90;;;;;;5039274;28;20134;-80
2022/11/10 06:27:36;;;;;;;1999.90;999.90;;;5.40;99.90;;;;;;5053923;28;20035;-79
2022/11/10 06:30:03;;;;;;;1999.90;999.90;;;5.40;99.90;;;;;;5030296;28;20475;-81
2022/11/10 06:32:28;;;;;;;1999.90;999.90;;;5.40;99.90;;;;;;5053290;28;20032;-79
2022/11/10 06:34:54;;;;;;;1022.47;520.78;;;5.30;99.90;;;;;;5029847;28;20632;-80
2022/11/10 06:37:20;;;;;;;1999.90;999.90;;;5.40;99.90;;;;;;5057217;28;20037;-80
2022/11/10 06:39:46;;;;;;;1999.90;999.90;;;5.30;99.90;;;;;;5056231;28;20036;-78
2022/11/10 06:42:12;;;;;;;1999.90;999.90;;;5.30;99.90;;;;;;5028129;28;20061;-80
2022/11/10 06:44:38;;;;;;;1999.90;999.90;;;5.20;99.90;;;;;;5025119;28;20601;-78
2022/11/10 06:47:04;;;;;;;1999.90;999.90;;;5.20;99.90;;;;;;5035228;28;20036;-78
2022/11/10 06:49:29;;;;;;;1999.90;999.90;;;5.20;99.90;;;;;;5042667;28;20116;-78
2022/11/10 06:51:55;;;;;;;1999.90;999.90;;;5.30;99.90;;;;;;5043198;28;20029;-78
2022/11/10 06:54:21;;;;;;;1999.90;999.90;;;5.30;99.90;;;;;;5056930;28;20048;-78
2022/11/10 06:56:47;;;;;;;1999.90;999.90;;;5.20;99.90;;;;;;5053013;28;20029;-81
2022/11/10 06:59:13;;;;;;;1999.90;999.90;;;5.30;99.90;;;;;;5039108;28;20025;-78
2022/11/10 07:01:38;;;;;;;324.70;300.17;;;5.30;99.90;;;;;;5035079;28;20589;-78
2022/11/10 07:04:05;;;;;;;1999.90;999.90;;;5.30;99.90;;;;;;5025174;28;20037;-78
2022/11/10 07:06:31;;;;;;;1999.90;999.90;;;5.20;99.90;;;;;;5010124;28;20040;-81
2022/11/10 07:08:56;;;;;;;1999.90;999.90;;;5.30;99.90;;;;;;5018752;28;20094;-79
2022/11/10 07:11:22;;;;;;;1999.90;999.90;;;5.30;99.90;;;;;;5033431;28;20044;-77
2022/11/10 07:13:48;;;;;;;1999.90;999.90;;;5.30;99.90;;;;;;5040933;28;20033;-79
2022/11/10 07:16:13;;;;;;;1999.90;999.90;;;5.20;99.90;;;;;;5036255;28;20444;-77
2022/11/10 07:18:39;;;;;;;1999.90;999.90;;;5.30;99.90;;;;;;5036515;28;20086;-77
2022/11/10 07:21:05;;;;;;;778.00;507.83;;;5.30;99.90;;;;;;5061224;28;20059;-79
2022/11/10 07:23:32;;;;;;;1999.90;999.90;;;5.30;99.90;;;;;;5025911;28;20040;-78
2022/11/10 07:26:01;;;;;;;1999.90;999.90;;;5.30;99.90;;;;;;5057815;28;20069;-77
2022/11/10 07:28:27;;;;;;;1999.90;999.90;;;5.40;99.90;;;;;;5042168;28;20060;-78
2022/11/10 07:30:53;;;;;;;1999.90;999.90;;;5.40;99.90;;;;;;5040374;28;20026;-77
2022/11/10 07:33:18;;;;;;;1124.93;616.25;;;5.40;99.90;;;;;;5038491;28;20138;-76
2022/11/10 07:35:54;;;;;;;1999.90;999.90;;;5.40;99.90;;;;;;5039573;28;20063;-77
2022/11/10 07:38:20;;;;;;;1999.90;999.90;;;5.40;99.90;;;;;;5060972;28;20128;-77
2022/11/10 07:40:49;;;;;;;1999.90;999.90;;;5.40;99.90;;;;;;5018536;28;20036;-77
2022/11/10 07:43:15;;;;;;;1999.90;999.90;;;5.60;99.90;;;;;;5039786;28;20033;-76
2022/11/10 07:45:41;;;;;;;1999.90;999.90;;;5.60;99.90;;;;;;5017674;28;20953;-81
2022/11/10 07:48:08;;;;;;;1999.90;999.90;;;5.70;99.90;;;;;;5052695;28;20061;-77
2022/11/10 07:50:34;;;;;;;1554.53;801.03;;;5.70;99.90;;;;;;5040299;28;20047;-77
2022/11/10 07:53:12;;;;;;;1999.90;999.90;;;5.70;99.90;;;;;;5057966;28;20060;-79
2022/11/10 07:55:39;;;;;;;1999.90;999.90;;;5.70;99.90;;;;;;5050993;28;20644;-78
2022/11/10 07:58:05;;;;;;;1999.90;999.90;;;5.80;99.90;;;;;;5056138;28;20105;-78
2022/11/10 08:00:32;;;;;;;1999.90;999.90;;;5.90;99.90;;;;;;5057627;28;20039;-79
2022/11/10 08:03:05;;;;;;;1999.90;999.90;;;6.00;99.90;;;;;;5054601;28;20021;-77
2022/11/10 08:05:31;;;;;;;1999.90;999.90;;;5.90;99.90;;;;;;5057214;28;20025;-80
2022/11/10 08:07:57;;;;;;;1999.90;999.90;;;6.00;99.90;;;;;;5050976;28;20108;-77
2022/11/10 08:10:24;;;;;;;1999.90;999.90;;;6.10;99.90;;;;;;5035472;28;20720;-80
2022/11/10 08:13:00;;;;;;;1999.90;999.90;;;6.30;99.90;;;;;;5039258;28;20035;-77
2022/11/10 08:15:28;;;;;;;1999.90;999.90;;;6.50;99.90;;;;;;5043727;28;20645;-79
2022/11/10 08:18:05;;;;;;;1999.90;999.90;;;6.50;99.90;;;;;;5050110;28;20071;-78
2022/11/10 08:20:31;;;;;;;1999.90;999.90;;;6.50;99.90;;;;;;5038539;28;20044;-78
2022/11/10 08:23:03;;;;;;;1999.90;999.90;;;6.60;99.90;;;;;;5055573;28;20086;-79
2022/11/10 08:25:30;;;;;;;1999.90;999.90;;;6.70;99.90;;;;;;5057314;28;20029;-77
2022/11/10 08:28:01;;;;;;;1155.00;642.60;;;6.80;99.90;;;;;;5048876;28;20033;-77
2022/11/10 08:30:27;;;;;;;;;;;6.70;99.90;;;;;;5024673;28;20040;-79
2022/11/10 08:32:54;;;;;;;1628.40;869.40;;;6.70;99.90;;;;;;5052680;28;19987;-80
2022/11/10 08:35:21;;;;;;;970.95;690.35;;;6.70;99.90;;;;;;5054081;28;20037;-78
2022/11/10 08:37:46;;;;;;;1999.90;999.90;;;6.70;99.90;;;;;;5042923;28;20029;-79
2022/11/10 08:40:12;;;;;;;1999.90;999.90;;;6.70;99.90;;;;;;5040087;28;20689;-80
2022/11/10 08:42:38;;;;;;;1999.90;999.90;;;6.80;99.90;;;;;;5052822;28;20110;-78
2022/11/10 08:45:04;;;;;;;1999.90;999.90;;;7.00;99.90;;;;;;5056139;28;20036;-79
2022/11/10 08:47:29;;;;;;;1999.90;999.90;;;7.00;99.90;;;;;;5046982;28;20111;-79
2022/11/10 08:49:55;;;;;;;1999.90;999.90;;;7.30;99.90;;;;;;5040688;28;20571;-79
2022/11/10 08:52:20;;;;;;;1999.90;999.90;;;7.30;99.90;;;;;;5033669;28;20551;-81
2022/11/10 08:54:46;;;;;;;1999.90;999.90;;;7.30;99.90;;;;;;5054297;28;20037;-79
2022/11/10 08:57:12;;;;;;;1999.90;999.90;;;7.20;99.90;;;;;;5034391;28;20396;-80
2022/11/10 08:59:37;;;;;;;1999.90;999.90;;;7.00;99.90;;;;;;5053846;28;20092;-78
2022/11/10 09:02:03;;;;;;;1999.90;999.90;;;7.00;99.90;;;;;;5056666;28;20443;-79
2022/11/10 09:04:28;;;;;;;1999.90;999.90;;;7.10;99.90;;;;;;5046229;28;20743;-80
2022/11/10 09:06:56;;;;;;;1999.90;999.90;;;7.30;99.90;;;;;;5042297;28;20055;-79
2022/11/10 09:09:24;;;;;;;1999.90;999.90;;;7.40;99.90;;;;;;5022121;28;20036;-81
2022/11/10 09:11:50;;;;;;;1999.90;999.90;;;7.50;99.90;;;;;;5035545;28;20601;-78
2022/11/10 09:14:16;;;;;;;1999.90;999.90;;;7.50;99.90;;;;;;5021559;28;20028;-78
2022/11/10 09:16:41;;;;;;;1999.90;999.90;;;7.50;99.90;;;;;;5039986;28;20033;-79
2022/11/10 09:19:07;;;;;;;1999.90;999.90;;;7.60;99.90;;;;;;5031177;28;20047;-80
2022/11/10 09:21:34;;;;;;;1999.90;999.90;;;7.70;99.90;;;;;;5055490;28;20075;-79
2022/11/10 09:24:01;;;;;;;1999.90;999.90;;;7.80;99.90;;;;;;5052922;28;20056;-78
2022/11/10 09:26:27;;;;;;;1999.90;999.90;;;7.90;99.90;;;;;;5055119;28;20044;-78
2022/11/10 09:28:53;;;;;;;1999.90;999.90;;;8.10;99.90;;;;;;5039872;28;20086;-78
2022/11/10 09:31:18;;;;;;;1999.90;999.90;;;8.00;99.90;;;;;;5054140;28;20060;-81
2022/11/10 09:33:44;;;;;;;1999.90;999.90;;;8.20;99.90;;;;;;5051589;28;20453;-79
2022/11/10 09:36:09;;;;;;;1999.90;999.90;;;8.20;99.90;;;;;;5057045;28;20040;-78
2022/11/10 09:38:35;;;;;;;1999.90;999.90;;;8.30;99.90;;;;;;5019642;28;20503;-79
2022/11/10 09:41:07;;;;;;;1999.90;999.90;;;8.40;99.90;;;;;;5051759;28;20136;-76
2022/11/10 09:43:52;;;;;;;1999.90;999.90;;;8.50;99.90;;;;;;5057696;28;20101;-81
2022/11/10 09:46:23;;;;;;;1999.90;999.90;;;8.70;99.90;;;;;;5047276;28;20100;-78
2022/11/10 09:48:55;;;;;;;1999.90;999.90;;;8.90;99.90;;;;;;5043034;28;20051;-78
2022/11/10 09:51:25;;;;;;;1999.90;999.90;;;8.90;99.90;;;;;;5033892;28;20037;-79
2022/11/10 09:54:04;;;;;;;1999.90;999.90;;;9.00;99.90;;;;;;5054963;28;20018;-79
2022/11/10 09:56:35;;;;;;;1999.90;999.90;;;8.90;99.90;;;;;;5046497;28;20035;-79
2022/11/10 09:59:15;;;;;;;1999.90;999.90;;;8.90;99.90;;;;;;5040795;28;20822;-80
2022/11/10 10:01:49;;;;;;;1999.90;999.90;;;9.00;99.90;;;;;;5051488;28;20033;-79
2022/11/10 10:04:30;;;;;;;1999.90;999.90;;;9.00;99.90;;;;;;5049955;28;20056;-78
2022/11/10 10:07:01;;;;;;;1999.90;999.90;;;9.00;99.90;;;;;;5062910;28;20784;-79
2022/11/10 10:09:44;;;;;;;1999.90;999.90;;;9.20;99.90;;;;;;5058619;28;20037;-77
2022/11/10 10:12:25;;;;;;;1999.90;999.90;;;9.30;99.90;;;;;;5040181;28;20429;-79
2022/11/10 10:15:09;;;;;;;;;;;9.30;99.90;;;;;;5053664;28;20025;-81
2022/11/10 10:18:00;;;;;;;1999.90;999.90;;;9.30;99.90;;;;;;5054217;28;20403;-78
2022/11/10 10:20:37;;;;;;;1999.90;999.90;;;9.40;99.90;;;;;;5037038;28;20030;-78
2022/11/10 10:23:22;;;;;;;1999.90;999.90;;;9.60;99.90;;;;;;5040478;28;20020;-78
2022/11/10 10:25:51;;;;;;;1999.90;999.90;;;9.60;99.90;;;;;;5043747;28;20024;-76
2022/11/10 10:28:37;;;;;;;1999.90;999.90;;;9.70;99.90;;;;;;5040221;28;20033;-78
2022/11/10 10:31:20;;;;;;;1999.90;999.90;;;9.90;99.90;;;;;;5056724;28;20032;-75
2022/11/10 10:33:48;;;;;;;1999.90;999.90;;;9.90;99.90;;;;;;5026135;28;20056;-78
2022/11/10 10:36:21;;;;;;;1999.90;999.90;;;10.10;99.90;;;;;;5022994;28;20029;-75
2022/11/10 10:38:52;;;;;;;1999.90;999.90;;;10.30;99.90;;;;;;5058396;28;20029;-76
2022/11/10 10:41:25;;;;;;;1999.90;999.90;;;10.60;99.90;;;;;;5013852;28;20029;-76
2022/11/10 10:43:54;;;;;;;1405.43;870.33;;;10.70;99.90;;;;;;5062735;28;20597;-76
2022/11/10 10:46:25;;;;;;;1999.90;999.90;;;10.50;99.90;;;;;;5059561;28;20036;-76
2022/11/10 10:49:15;;;;;;;1999.90;999.90;;;10.80;99.90;;;;;;5042359;28;20040;-76
2022/11/10 10:51:41;;;;;;;1999.90;999.90;;;11.20;99.90;;;;;;5057136;28;20070;-76
2022/11/10 10:54:23;;;;;;;1999.90;999.90;;;11.10;99.90;;;;;;5033995;28;20035;-75
2022/11/10 10:56:49;;;;;;;736.33;672.95;;;11.20;99.90;;;;;;5057805;28;20582;-77
2022/11/10 10:59:21;;;;;;;1999.90;999.90;;;11.30;99.90;;;;;;5041435;28;20044;-75
2022/11/10 11:01:51;;;;;;;1344.03;822.58;;;11.50;99.90;;;;;;5033254;28;20060;-75
2022/11/10 11:04:36;;;;;;;893.78;826.75;;;11.20;99.90;;;;;;5046032;28;20045;-75
2022/11/10 11:07:18;;;;;;;850.03;791.50;;;12.00;99.90;;;;;;5041329;28;20518;-74
2022/11/10 11:09:44;;;;;;;614.40;583.50;;;12.30;99.90;;;;;;5050757;28;20499;-74
2022/11/10 11:12:12;;;;;;;660.45;625.72;;;12.40;98.30;;;;;;5038801;28;20056;-75
2022/11/10 11:14:41;;;;;;;759.63;715.65;;;12.20;96.70;;;;;;5032252;28;20028;-74
2022/11/10 11:17:21;;;;;;;647.75;614.72;;;12.10;95.60;;;;;;5051917;28;20040;-75
2022/11/10 11:19:51;;;;;;;663.47;626.85;;;12.10;93.50;;;;;;5021711;28;20037;-75
2022/11/10 11:22:44;;;;;;;575.72;545.67;;;12.10;94.70;;;;;;5051500;28;20107;-74
2022/11/10 11:25:32;;;;;;;547.22;521.60;;;12.30;93.10;;;;;;5050561;28;20035;-74
2022/11/10 11:28:23;;;;;;;562.80;535.22;;;12.20;92.70;;;;;;5042286;28;20061;-74
2022/11/10 11:31:03;;;;;;;680.80;645.30;;;12.20;91.90;;;;;;5041518;28;20017;-75
2022/11/10 11:33:34;;;;;;;;;;;12.50;92.40;;;;;;5045262;28;20031;-75
2022/11/10 11:36:04;;;;;;;437.17;418.52;;;12.40;92.70;;;;;;5039572;28;19927;-75
2022/11/10 11:38:33;;;;;;;426.70;409.23;;;12.40;91.00;;;;;;5052854;28;20021;-75
2022/11/10 11:41:19;;;;;;;459.65;439.00;;;12.50;90.20;;;;;;5050088;28;20037;-75
2022/11/10 11:44:10;;;;;;;496.85;474.10;;;12.40;91.40;;;;;;5045181;28;20058;-75
2022/11/10 11:47:03;;;;;;;503.13;479.88;;;12.70;90.10;;;;;;5046781;28;20031;-75
2022/11/10 11:49:50;;;;;;;558.22;532.70;;;12.60;90.20;;;;;;5045917;28;20033;-75
2022/11/10 11:52:36;;;;;;;569.08;541.58;;;12.70;90.80;;;;;;5033393;28;20036;-75
2022/11/10 11:55:22;;;;;;;658.80;625.33;;;12.70;89.60;;;;;;5044638;28;20029;-74
2022/11/10 11:58:18;;;;;;;472.42;451.40;;;12.60;90.70;;;;;;5047518;28;20017;-75
2022/11/10 12:01:07;;;;;;;485.55;463.95;;;12.60;89.30;;;;;;5043034;28;20021;-74
2022/11/10 12:03:48;;;;;;;418.38;400.90;;;12.80;86.30;;;;;;5037964;28;20025;-74
2022/11/10 12:06:13;;;;;;;440.90;421.70;;;12.80;87.40;;;;;;5028561;28;20040;-74
2022/11/10 12:08:54;;;;;;;531.33;506.88;;;12.80;84.50;;;;;;5044420;28;20033;-75
2022/11/10 12:11:19;;;;;;;;;;;12.90;87.80;;;;;;5027625;28;20016;-74
2022/11/10 12:14:03;;;;;;;363.23;348.02;;;12.70;82.20;;;;;;5041176;28;20330;-74
2022/11/10 12:16:31;;;;;;;364.38;348.40;;;12.80;84.40;;;;;;5035695;28;20053;-75
2022/11/10 12:19:28;;;;;;;399.48;382.38;;;12.60;83.50;;;;;;5028268;28;20426;-74
2022/11/10 12:22:23;;;;;;;399.90;382.77;;;12.40;82.80;;;;;;5045465;28;20031;-74
2022/11/10 12:25:04;;;;;;;561.75;533.17;;;12.50;83.40;;;;;;5037392;28;20120;-74
2022/11/10 12:27:35;;;;;;;404.85;387.67;;;12.60;88.10;;;;;;5046360;28;20025;-74
2022/11/10 12:30:11;;;;;;;432.83;414.05;;;12.80;82.40;;;;;;5028271;28;20110;-75
2022/11/10 12:32:47;;;;;;;435.15;415.67;;;12.80;85.40;;;;;;5023435;28;20104;-74
2022/11/10 12:35:32;;;;;;;472.02;451.33;;;13.00;80.70;;;;;;5043797;28;20032;-74
2022/11/10 12:38:10;;;;;;;366.77;351.73;;;12.90;81.90;;;;;;5045848;28;20029;-74
2022/11/10 12:40:46;;;;;;;459.58;439.23;;;12.70;82.80;;;;;;5047812;28;20029;-74